createdAt,value
2022-09-20T00:04:33.006Z,2.10
2022-09-20T00:09:34.393Z,1.20
2022-09-20T00:14:35.761Z,1.60
2022-09-20T00:19:37.081Z,1.50
2022-09-20T00:24:38.388Z,1.35
2022-09-20T00:29:39.755Z,1.50
2022-09-20T00:35:00.082Z,1.42
2022-09-20T00:40:01.984Z,1.40
2022-09-20T00:45:06.451Z,1.40
2022-09-20T00:50:16.733Z,1.48
2022-09-20T00:55:19.028Z,1.50
2022-09-20T01:00:20.640Z,1.20
2022-09-20T01:05:22.211Z,1.35
2022-09-20T01:10:23.556Z,1.45
2022-09-20T01:15:27.747Z,1.30
2022-09-20T01:20:33.318Z,1.60
2022-09-20T01:25:53.307Z,1.70
2022-09-20T01:31:00.766Z,1.48
2022-09-20T01:36:04.386Z,1.70
2022-09-20T01:41:14.742Z,1.48
2022-09-20T01:46:22.318Z,1.70
2022-09-20T01:51:24.155Z,1.50
2022-09-20T01:56:31.569Z,1.70
2022-09-20T02:01:41.687Z,1.52
2022-09-20T02:06:42.961Z,1.30
2022-09-20T02:11:44.269Z,1.50
2022-09-20T02:16:51.019Z,1.48
2022-09-20T02:21:55.372Z,1.50
2022-09-20T02:27:02.895Z,1.27
2022-09-20T02:32:13.560Z,1.70
2022-09-20T02:37:32.819Z,1.30
2022-09-20T02:42:57.554Z,1.53
2022-09-20T02:48:03.001Z,1.52
2022-09-20T02:53:23.928Z,2.47
2022-09-20T02:58:30.722Z,1.30
2022-09-20T03:03:34.933Z,1.20
2022-09-20T03:08:54.779Z,1.25
2022-09-20T03:13:56.505Z,1.60
2022-09-20T03:19:03.416Z,1.40
2022-09-20T03:24:28.562Z,1.40
2022-09-20T03:29:29.887Z,1.42
2022-09-20T03:34:39.980Z,1.35
2022-09-20T03:39:59.632Z,2.05
2022-09-20T03:45:13.773Z,1.30
2022-09-20T03:50:18.192Z,1.65
2022-09-20T03:55:38.482Z,1.45
2022-09-20T04:00:42.950Z,1.70
2022-09-20T04:05:56.023Z,1.50
2022-09-20T04:11:00.318Z,1.33
2022-09-20T04:16:14.889Z,1.50
2022-09-20T04:21:23.734Z,1.58
2022-09-20T04:26:32.992Z,1.40
2022-09-20T04:31:55.590Z,1.65
2022-09-20T04:36:57.139Z,1.73
2022-09-20T04:42:31.955Z,1.10
2022-09-20T04:47:52.149Z,2.13
2022-09-20T04:57:57.979Z,1.15
2022-09-20T05:03:11.514Z,1.00
2022-09-20T05:08:14.302Z,1.23
2022-09-20T05:13:15.814Z,1.25
2022-09-20T05:18:26.448Z,1.40
2022-09-20T05:23:30.953Z,1.05
2022-09-20T05:28:50.123Z,1.08
2022-09-20T05:34:04.420Z,1.17
2022-09-20T05:39:24.275Z,1.10
2022-09-20T05:44:31.661Z,1.00
2022-09-20T05:50:00.010Z,1.20
2022-09-20T05:55:16.159Z,1.58
2022-09-20T06:00:21.520Z,1.40
2022-09-20T06:05:42.861Z,1.15
2022-09-20T06:10:47.452Z,1.33
2022-09-20T06:15:54.857Z,1.70
2022-09-20T06:21:15.102Z,1.50
2022-09-20T06:26:19.763Z,1.25
2022-09-20T06:31:21.311Z,2.17
2022-09-20T06:36:46.886Z,1.25
2022-09-20T06:41:49.568Z,1.40
2022-09-20T06:46:54.211Z,1.50
2022-09-20T06:51:55.864Z,1.40
2022-09-20T06:56:57.779Z,1.60
2022-09-20T07:02:01.556Z,1.60
2022-09-20T07:07:09.098Z,1.40
2022-09-20T07:12:12.376Z,1.85
2022-09-20T07:17:14.695Z,1.40
2022-09-20T07:22:16.080Z,1.40
2022-09-20T07:27:17.487Z,1.50
2022-09-20T07:32:18.902Z,1.83
2022-09-20T07:37:20.364Z,1.65
2022-09-20T07:42:22.703Z,1.95
2022-09-20T07:47:27.674Z,1.60
2022-09-20T07:52:29.082Z,1.20
2022-09-20T07:57:34.930Z,1.30
2022-09-20T08:02:36.468Z,1.23
2022-09-20T08:07:38.624Z,1.67
2022-09-20T08:18:03.065Z,1.55
2022-09-20T08:23:23.087Z,1.45
2022-09-20T08:28:25.353Z,1.48
2022-09-20T08:33:27.164Z,1.40
2022-09-20T08:43:51.735Z,1.40
2022-09-20T08:48:53.331Z,1.50
2022-09-20T08:53:55.757Z,1.45
2022-09-20T08:58:59.423Z,1.90
2022-09-20T09:04:17.409Z,2.13
2022-09-20T09:09:20.707Z,1.67
2022-09-20T09:14:43.976Z,1.40
2022-09-20T09:19:45.337Z,1.63
2022-09-20T09:25:07.191Z,1.65
2022-09-20T09:30:20.407Z,1.20
2022-09-20T09:35:28.829Z,1.40
2022-09-20T09:40:31.725Z,1.15
2022-09-20T09:45:38.512Z,1.30
2022-09-20T09:50:40.372Z,1.55
2022-09-20T09:55:52.001Z,1.40
2022-09-20T10:00:54.632Z,1.50
2022-09-20T10:06:07.444Z,1.33
2022-09-20T10:11:12.189Z,1.60
2022-09-20T10:16:13.600Z,2.05
2022-09-20T10:21:25.017Z,2.08
2022-09-20T10:26:35.691Z,1.83
2022-09-20T10:36:56.399Z,1.75
2022-09-20T10:42:19.790Z,1.40
2022-09-20T10:47:24.748Z,1.67
2022-09-20T10:52:26.094Z,1.63
2022-09-20T10:57:42.171Z,1.27
2022-09-20T11:02:47.299Z,1.30
2022-09-20T11:08:01.003Z,1.60
2022-09-20T11:13:10.664Z,1.40
2022-09-20T11:18:12.020Z,1.20
2022-09-20T11:23:16.196Z,1.13
2022-09-20T11:28:46.886Z,1.30
2022-09-20T11:34:04.569Z,1.23
2022-09-20T11:39:13.534Z,1.50
2022-09-20T11:44:16.408Z,1.70
2022-09-20T11:49:26.893Z,1.13
2022-09-20T11:54:40.569Z,1.20
2022-09-20T12:05:33.982Z,1.40
2022-09-20T12:10:37.594Z,1.20
2022-09-20T12:15:40.207Z,1.48
2022-09-20T12:20:42.551Z,1.30
2022-09-20T12:26:00.781Z,1.25
2022-09-20T12:31:21.133Z,1.23
2022-09-20T12:36:23.229Z,1.50
2022-09-20T12:41:28.761Z,1.00
2022-09-20T12:46:53.724Z,1.35
2022-09-20T12:52:27.453Z,1.30
2022-09-20T12:57:32.136Z,1.10
2022-09-20T13:02:42.667Z,1.33
2022-09-20T13:07:52.203Z,1.17
2022-09-20T13:17:58.486Z,1.23
2022-09-20T13:23:00.672Z,1.10
2022-09-20T13:28:05.785Z,1.15
2022-09-20T13:33:20.659Z,1.40
2022-09-20T13:38:27.924Z,1.27
2022-09-20T13:43:36.479Z,1.50
2022-09-20T13:48:37.958Z,1.10
2022-09-20T13:53:42.090Z,1.17
2022-09-20T13:58:43.939Z,1.63
2022-09-20T14:03:45.841Z,1.10
2022-09-20T14:08:48.839Z,1.10
2022-09-20T14:13:52.078Z,1.20
2022-09-20T14:18:53.716Z,1.10
2022-09-20T14:24:02.265Z,1.38
2022-09-20T14:29:22.576Z,1.13
2022-09-20T14:34:24.125Z,1.05
2022-09-20T14:39:25.560Z,0.90
2022-09-20T14:44:31.037Z,1.20
2022-09-20T14:49:33.519Z,1.20
2022-09-20T14:54:34.965Z,1.20
2022-09-20T14:59:39.129Z,1.25
2022-09-20T15:04:42.275Z,1.33
2022-09-20T15:09:43.942Z,1.55
2022-09-20T15:14:45.775Z,1.20
2022-09-20T15:19:47.815Z,1.20
2022-09-20T15:24:49.212Z,1.42
2022-09-20T15:29:50.644Z,1.67
2022-09-20T15:34:52.085Z,1.48
2022-09-20T15:39:53.618Z,1.10
2022-09-20T15:44:54.975Z,1.15
2022-09-20T15:49:56.833Z,1.25
2022-09-20T15:55:00.397Z,1.30
2022-09-20T16:00:01.846Z,1.30
2022-09-20T16:05:03.509Z,1.15
2022-09-20T16:10:05.043Z,1.17
2022-09-20T16:15:06.920Z,1.30
2022-09-20T16:20:08.553Z,1.20
2022-09-20T16:25:10.148Z,1.23
2022-09-20T16:30:11.868Z,1.30
2022-09-20T16:35:13.828Z,1.23
2022-09-20T16:40:15.433Z,1.17
2022-09-20T16:45:16.930Z,1.33
2022-09-20T16:50:18.636Z,1.20
2022-09-20T16:55:20.695Z,1.13
2022-09-20T17:00:24.718Z,1.30
2022-09-20T17:05:26.139Z,1.10
2022-09-20T17:10:29.374Z,1.20
2022-09-20T17:15:30.897Z,1.60
2022-09-20T17:20:34.140Z,1.30
2022-09-20T17:25:35.679Z,1.20
2022-09-20T17:30:37.033Z,1.60
2022-09-20T17:35:38.542Z,1.33
2022-09-20T17:40:40.087Z,1.45
2022-09-20T17:45:41.433Z,1.40
2022-09-20T17:50:44.115Z,1.45
2022-09-20T17:55:52.392Z,1.30
2022-09-20T18:00:58.572Z,1.23
2022-09-20T18:05:59.941Z,1.30
2022-09-20T18:11:01.384Z,1.55
2022-09-20T18:16:02.912Z,1.35
2022-09-20T18:21:16.509Z,1.45
2022-09-20T18:26:22.899Z,1.33
2022-09-20T18:31:26.062Z,1.83
2022-09-20T18:36:28.204Z,1.92
2022-09-20T18:41:31.894Z,1.73
2022-09-20T18:46:33.956Z,2.08
2022-09-20T18:51:39.431Z,2.17
2022-09-20T18:56:42.614Z,2.53
2022-09-20T19:01:50.401Z,2.55
2022-09-20T19:07:04.512Z,2.90
2022-09-20T19:12:26.142Z,2.65
2022-09-20T19:17:53.922Z,2.72
2022-09-20T19:23:01.395Z,2.63
2022-09-20T19:28:02.831Z,2.38
2022-09-20T19:33:04.319Z,2.38
2022-09-20T19:38:11.747Z,1.90
2022-09-20T19:43:32.199Z,2.25
2022-09-20T19:48:40.586Z,2.53
2022-09-20T19:53:42.381Z,3.28
2022-09-20T19:58:45.365Z,3.20
2022-09-20T20:03:48.161Z,2.65
2022-09-20T20:08:55.822Z,3.10
2022-09-20T20:14:04.398Z,3.13
2022-09-20T20:19:12.862Z,2.90
2022-09-20T20:24:23.675Z,2.38
2022-09-20T20:29:25.018Z,2.35
2022-09-20T20:34:26.640Z,2.60
2022-09-20T20:39:31.962Z,2.33
2022-09-20T20:44:35.002Z,2.20
2022-09-20T20:49:36.488Z,2.28
2022-09-20T20:54:37.881Z,2.55
2022-09-20T20:59:39.216Z,2.70
2022-09-20T21:04:40.735Z,2.38
2022-09-20T21:09:42.135Z,2.65
2022-09-20T21:14:44.575Z,3.13
2022-09-20T21:19:45.940Z,2.72
2022-09-20T21:24:47.277Z,2.70
2022-09-20T21:29:48.636Z,2.40
2022-09-20T21:34:49.985Z,2.60
2022-09-20T21:39:51.439Z,2.40
2022-09-20T21:44:52.970Z,2.40
2022-09-20T21:49:54.972Z,2.30
2022-09-20T21:54:56.327Z,2.22
2022-09-20T21:59:57.651Z,2.47
2022-09-20T22:04:58.988Z,2.08
2022-09-20T22:10:00.348Z,2.10
2022-09-20T22:15:01.801Z,2.00
2022-09-20T22:20:04.455Z,2.05
2022-09-20T22:25:06.247Z,2.15
2022-09-20T22:30:08.875Z,2.10
2022-09-20T22:35:10.525Z,2.30
2022-09-20T22:40:12.056Z,1.90
2022-09-20T22:45:13.612Z,2.30
2022-09-20T22:50:15.219Z,1.80
2022-09-20T22:55:16.776Z,2.25
2022-09-20T23:00:18.253Z,2.00
2022-09-20T23:05:19.781Z,2.60
2022-09-20T23:10:21.402Z,2.17
2022-09-20T23:15:22.916Z,2.28
2022-09-20T23:20:24.902Z,2.33
2022-09-20T23:25:26.418Z,2.17
2022-09-20T23:30:27.924Z,2.13
2022-09-20T23:35:29.444Z,2.65
2022-09-20T23:40:33.519Z,2.63
2022-09-20T23:45:35.095Z,2.25
2022-09-20T23:50:36.621Z,2.50
2022-09-20T23:55:38.110Z,2.60
